済州国際空港の過去48時間の天気

済州国際空港 (Cheju International Airport)

現在時刻: 12/8 15:45 KST (12/8 06:45 UTC) 以下の時間は現地時間です。

過去48時間のMETAR気象情報
時間 風向 風速(m/s) 視程 気温(℃) 湿度(%) 気圧(hPa) 天気現象
8 15:00 東北東 4 10km以上 11 58 1025
8 14:00 東北東 4 10km以上 12 54 1025
8 13:00 東北東 4 10km以上 12 54 1026
8 12:00 東北東 3 10km以上 11 54 1026
8 11:00 3 10km以上 11 54 1027
8 10:00 東南東 3 10km以上 10 62 1028
8 09:00 南東 3 10km以上 9 66 1027
8 08:00 南南東 3 10km以上 7 66 1027
8 07:00 南南東 3 10km以上 6 70 1026
8 06:00 南南東 3 10km以上 5 70 1026
8 05:00 3 10km以上 6 65 1026
8 04:00 3 10km以上 6 65 1026
8 03:00 3 10km以上 6 65 1027
8 02:00 3 10km以上 6 65 1027
8 01:00 3 10km以上 6 65 1027
8 00:00 南南東 3 10km以上 6 65 1027
7 23:00 南南東 3 10km以上 6 61 1027
7 22:00 3 10km以上 7 57 1027
7 21:00 3 10km以上 7 57 1027
7 20:00 南南西 2 10km以上 7 57 1027
7 19:00 2 10km以上 10 46 1027
7 18:00 北北西 4 10km以上 11 40 1027
7 17:00 北西 4 10km以上 11 47 1026
7 16:00 北西 4 10km以上 12 41 1026
7 15:00 西北西 4 10km以上 12 50 1026
7 14:00 西北西 4 10km以上 12 47 1026
7 13:00 北西 4 10km以上 12 50 1026
7 12:00 北西 5 10km以上 12 47 1027
7 11:00 北西 5 10km以上 11 54 1027
7 10:00 北西 5 10km以上 11 54 1027
7 09:00 北西 6 10km以上 11 58 1026
7 08:00 北西 5 10km以上 11 58 1026
7 07:00 西北西 5 10km以上 11 58 1025
7 06:00 西 4 10km以上 11 58 1025
7 05:00 南南西 4 10km以上 9 62 1025
7 04:00 南西 2 10km以上 8 61 1025
7 03:00 西北西 4 10km以上 10 54 1025
7 02:00 西 3 10km以上 8 57 1025
7 01:00 南西 3 10km以上 7 57 1026
7 00:00 南西 3 10km以上 6 61 1026
6 23:00 南西 2 10km以上 7 57 1026
6 22:00 西北西 5 10km以上 9 46 1026
6 21:00 北西 3 10km以上 9 46 1026
6 20:00 北西 3 10km以上 9 50 1025
6 19:00 北西 5 10km以上 10 46 1025
6 18:00 北西 6 10km以上 10 50 1025
6 17:00 北西 6 10km以上 10 50 1025
6 16:00 北西 5 10km以上 11 43 1024
RKPC 080600Z 07008KT CAVOK 11/03 Q1025 NOSIG
RKPC 080500Z 07008KT CAVOK 12/03 Q1025 NOSIG
RKPC 080400Z 07007KT 020V110 CAVOK 12/03 Q1026 NOSIG
RKPC 080300Z 06006KT 020V080 CAVOK 11/02 Q1026 NOSIG
RKPC 080200Z 10005KT 060V150 CAVOK 11/02 Q1027 NOSIG
RKPC 080100Z 11005KT 050V150 CAVOK 10/03 Q1028 NOSIG
RKPC 080000Z 14005KT 080V160 CAVOK 09/03 Q1027 NOSIG
RKPC 072300Z 16006KT CAVOK 07/01 Q1027 NOSIG
RKPC 072200Z 15006KT CAVOK 06/01 Q1026 NOSIG
RKPC 072100Z 16006KT CAVOK 05/00 Q1026 NOSIG
RKPC 072000Z 17006KT CAVOK 06/00 Q1026 NOSIG
RKPC 071900Z 17006KT CAVOK 06/00 Q1026 NOSIG
RKPC 071800Z 17006KT CAVOK 06/M00 Q1027 NOSIG
RKPC 071700Z 17006KT CAVOK 06/M00 Q1027 NOSIG
RKPC 071600Z 17006KT CAVOK 06/M00 Q1027 NOSIG
RKPC 071500Z 16006KT CAVOK 06/M00 Q1027 NOSIG
RKPC 071400Z 16006KT CAVOK 06/M01 Q1027 NOSIG
RKPC 071300Z 17006KT CAVOK 07/M01 Q1027 NOSIG
RKPC 071200Z 18005KT 150V280 CAVOK 07/M01 Q1027 NOSIG
RKPC 071100Z 21003KT 170V300 CAVOK 07/M01 Q1027 NOSIG
RKPC 071000Z 35004KT CAVOK 10/M01 Q1027 NOSIG
RKPC 070900Z 33007KT 300V360 CAVOK 11/M02 Q1027 NOSIG
RKPC 070800Z 32008KT 270V360 CAVOK 11/00 Q1026 NOSIG
RKPC 070700Z 32007KT 280V010 CAVOK 12/M01 Q1026 NOSIG
RKPC 070600Z 30007KT 260V330 CAVOK 12/02 Q1026 NOSIG
RKPC 070500Z 30008KT 270V340 CAVOK 12/01 Q1026 NOSIG
RKPC 070400Z 31007KT 270V340 9999 FEW040 12/02 Q1026 NOSIG
RKPC 070300Z 31009KT 280V340 9999 SCT040 12/01 Q1027 NOSIG
RKPC 070200Z 31009KT 270V350 9999 SCT040 BKN180 11/02 Q1027 NOSIG
RKPC 070100Z 31009KT 270V350 9999 SCT040 BKN180 11/02 Q1027 NOSIG
RKPC 070000Z 31011KT 9999 SCT040 BKN180 11/03 Q1026 NOSIG
RKPC 062300Z 31010KT 280V350 9999 BKN040 BKN180 11/03 Q1026 NOSIG
RKPC 062200Z 30009KT 270V340 9999 BKN040 BKN180 11/03 Q1025 NOSIG
RKPC 062100Z 28007KT 250V320 9999 SCT040 BKN180 11/03 Q1025 NOSIG
RKPC 062000Z 21007KT 190V250 9999 SCT040 BKN180 09/02 Q1025 NOSIG
RKPC 061900Z 23003KT 9999 FEW040 BKN180 08/01 Q1025 NOSIG
RKPC 061800Z 30007KT 270V330 9999 FEW040 BKN180 10/01 Q1025 NOSIG
RKPC 061700Z 27006KT 230V310 9999 FEW040 BKN200 08/00 Q1025 NOSIG
RKPC 061600Z 22006KT 180V330 9999 FEW040 BKN200 07/M01 Q1026 NOSIG
RKPC 061500Z 23005KT 180V310 9999 FEW040 BKN200 06/M01 Q1026 NOSIG
RKPC 061400Z 22004KT 190V320 9999 FEW040 BKN200 07/M01 Q1026 NOSIG
RKPC 061300Z 30009KT 270V330 9999 SCT040 SCT200 09/M02 Q1026 NOSIG
RKPC 061200Z 32006KT 280V350 9999 SCT040 BKN200 09/M02 Q1026 NOSIG
RKPC 061100Z 31006KT 260V360 9999 FEW040 BKN200 09/M01 Q1025 NOSIG
RKPC 061000Z 32009KT 290V360 9999 SCT040 SCT200 10/M01 Q1025 NOSIG
RKPC 060900Z 32012KT 290V350 9999 SCT040 10/M00 Q1025 NOSIG
RKPC 060800Z 32011KT 290V360 9999 SCT040 10/M00 Q1025 NOSIG
RKPC 060700Z 31010KT 280V340 9999 SCT040 11/M01 Q1024 NOSIG